createdAt,value
2023-03-12T00:01:14.442Z,95872.63
2023-03-12T00:03:42.569Z,95872.75
2023-03-12T00:06:11.270Z,95880.31
2023-03-12T00:08:39.474Z,95886.28
2023-03-12T00:11:09.141Z,95880.53
2023-03-12T00:13:37.287Z,95887.13
2023-03-12T00:16:10.068Z,95888.06
2023-03-12T00:18:38.392Z,95893.78
2023-03-12T00:21:06.874Z,95891.00
2023-03-12T00:23:34.997Z,95897.66
2023-03-12T00:26:03.627Z,95900.34
2023-03-12T00:28:31.588Z,95896.47
2023-03-12T00:30:59.928Z,95902.59
2023-03-12T00:33:29.835Z,95900.16
2023-03-12T00:36:00.819Z,95904.94
2023-03-12T00:38:28.751Z,95910.53
2023-03-12T00:40:56.825Z,95906.19
2023-03-12T00:43:24.764Z,95904.00
2023-03-12T00:45:52.728Z,95907.72
2023-03-12T00:48:20.772Z,95901.38
2023-03-12T00:50:50.032Z,95909.44
2023-03-12T00:53:17.936Z,95904.75
2023-03-12T00:55:46.024Z,95902.19
2023-03-12T00:58:13.988Z,95904.25
2023-03-12T01:00:41.945Z,95914.44
2023-03-12T01:03:09.867Z,95902.78
2023-03-12T01:05:40.640Z,95908.72
2023-03-12T01:08:10.634Z,95907.13
2023-03-12T01:10:42.096Z,95908.19
2023-03-12T01:13:10.451Z,95918.03
2023-03-12T01:15:38.470Z,95919.44
2023-03-12T01:18:06.545Z,95921.25
2023-03-12T01:20:34.536Z,95909.81
2023-03-12T01:23:02.475Z,95915.81
2023-03-12T01:25:31.771Z,95915.97
2023-03-12T01:27:59.664Z,95914.50
2023-03-12T01:30:28.031Z,95906.38
2023-03-12T01:32:56.011Z,95901.97
2023-03-12T01:35:23.960Z,95899.00
2023-03-12T01:37:53.065Z,95903.00
2023-03-12T01:40:25.434Z,95896.50
2023-03-12T01:42:55.409Z,95898.94
2023-03-12T01:46:12.252Z,95910.66
2023-03-12T01:48:42.910Z,95904.06
2023-03-12T01:51:11.880Z,95904.13
2023-03-12T01:53:40.285Z,95914.13
2023-03-12T01:56:08.849Z,95917.31
2023-03-12T01:58:39.430Z,95911.53
2023-03-12T02:01:08.842Z,95908.94
2023-03-12T02:03:37.172Z,95908.88
2023-03-12T02:06:08.455Z,95912.31
2023-03-12T02:08:38.601Z,95923.16
2023-03-12T02:11:06.650Z,95909.81
2023-03-12T02:13:34.834Z,95918.97
2023-03-12T02:16:04.657Z,95912.31
2023-03-12T02:18:32.705Z,95914.50
2023-03-12T02:21:09.108Z,95922.22
2023-03-12T02:23:41.245Z,95912.44
2023-03-12T02:26:11.402Z,95923.22
2023-03-12T02:28:44.022Z,95916.31
2023-03-12T02:31:14.712Z,95924.38
2023-03-12T02:33:43.098Z,95918.50
2023-03-12T02:36:11.024Z,95928.69
2023-03-12T02:38:43.013Z,95923.72
2023-03-12T02:41:19.009Z,95938.97
2023-03-12T02:43:49.962Z,95941.56
2023-03-12T02:46:18.064Z,95944.03
2023-03-12T02:48:46.003Z,95950.97
2023-03-12T02:51:13.946Z,95947.94
2023-03-12T02:53:41.874Z,95947.31
2023-03-12T02:56:09.825Z,95957.38
2023-03-12T02:58:39.147Z,95964.16
2023-03-12T03:01:07.127Z,95970.75
2023-03-12T03:03:35.067Z,95963.19
2023-03-12T03:06:03.048Z,95974.06
2023-03-12T03:08:30.978Z,95978.22
2023-03-12T03:10:59.154Z,95983.44
2023-03-12T03:13:27.056Z,95980.94
2023-03-12T03:15:57.765Z,95984.94
2023-03-12T03:18:25.954Z,95968.97
2023-03-12T03:20:57.510Z,95983.94
2023-03-12T03:23:25.791Z,95978.38
2023-03-12T03:25:54.144Z,95988.34
2023-03-12T03:28:22.521Z,95991.56
2023-03-12T03:30:50.598Z,95986.63
2023-03-12T03:33:19.907Z,95991.63
2023-03-12T03:35:49.111Z,95995.06
2023-03-12T03:38:17.558Z,95991.00
2023-03-12T03:40:45.467Z,95985.22
2023-03-12T03:43:13.379Z,95999.56
2023-03-12T03:45:41.330Z,95998.63
2023-03-12T03:48:09.249Z,95994.84
2023-03-12T03:50:39.259Z,96000.63
2023-03-12T03:53:07.606Z,95998.25
2023-03-12T03:55:37.544Z,95995.19
2023-03-12T03:58:05.924Z,95995.47
2023-03-12T04:00:34.128Z,96001.34
2023-03-12T04:03:02.124Z,95997.97
2023-03-12T04:05:30.314Z,95989.69
2023-03-12T04:08:03.276Z,95994.78
2023-03-12T04:10:31.410Z,95995.59
2023-03-12T04:12:59.606Z,95982.38
2023-03-12T04:15:27.640Z,95994.75
2023-03-12T04:17:55.796Z,95984.84
2023-03-12T04:20:23.882Z,95992.41
2023-03-12T04:22:51.799Z,95994.09
2023-03-12T04:25:21.166Z,96003.97
2023-03-12T04:27:49.124Z,96014.50
2023-03-12T04:30:17.162Z,96016.28
2023-03-12T04:32:45.144Z,96017.25
2023-03-12T04:35:13.078Z,96019.75
2023-03-12T04:37:41.049Z,96020.38
2023-03-12T04:40:10.061Z,96026.09
2023-03-12T04:42:39.511Z,96012.09
2023-03-12T04:45:08.785Z,96022.19
2023-03-12T04:47:36.713Z,96031.34
2023-03-12T04:50:04.891Z,96025.72
2023-03-12T04:52:32.854Z,96032.28
2023-03-12T04:55:00.838Z,96035.56
2023-03-12T04:57:28.878Z,96035.25
2023-03-12T04:59:58.250Z,96042.00
2023-03-12T05:02:26.314Z,96045.50
2023-03-12T05:04:57.184Z,96043.09
2023-03-12T05:07:25.152Z,96041.41
2023-03-12T05:09:53.121Z,96047.19
2023-03-12T05:12:21.092Z,96041.41
2023-03-12T05:14:49.007Z,96045.38
2023-03-12T05:17:18.324Z,96048.69
2023-03-12T05:19:46.570Z,96047.97
2023-03-12T05:22:14.547Z,96040.56
2023-03-12T05:24:42.914Z,96053.78
2023-03-12T05:27:11.649Z,96051.47
2023-03-12T05:29:39.789Z,96049.72
2023-03-12T05:32:08.617Z,96058.63
2023-03-12T05:34:37.978Z,96061.06
2023-03-12T05:37:06.169Z,96061.09
2023-03-12T05:39:34.201Z,96071.06
2023-03-12T05:42:02.551Z,96064.44
2023-03-12T05:44:30.521Z,96068.50
2023-03-12T05:46:59.138Z,96065.78
2023-03-12T05:49:27.305Z,96069.81
2023-03-12T05:51:56.645Z,96068.00
2023-03-12T05:54:24.699Z,96067.13
2023-03-12T05:56:52.681Z,96069.25
2023-03-12T05:59:20.718Z,96067.13
2023-03-12T06:01:48.782Z,96066.28
2023-03-12T06:04:16.751Z,96076.97
2023-03-12T06:06:44.660Z,96076.66
2023-03-12T06:09:14.134Z,96078.72
2023-03-12T06:11:42.068Z,96070.94
2023-03-12T06:14:10.871Z,96085.66
2023-03-12T06:16:38.826Z,96086.84
2023-03-12T06:19:07.736Z,96075.56
2023-03-12T06:21:36.883Z,96074.81
2023-03-12T06:24:05.192Z,96080.97
2023-03-12T06:26:34.596Z,96077.25
2023-03-12T06:29:02.639Z,96089.28
2023-03-12T06:31:30.653Z,96084.06
2023-03-12T06:33:58.719Z,96086.31
2023-03-12T06:36:26.791Z,96094.44
2023-03-12T06:38:57.095Z,96092.69
2023-03-12T06:41:25.336Z,96089.78
2023-03-12T06:43:54.633Z,96091.94
2023-03-12T06:46:25.196Z,96091.38
2023-03-12T06:48:53.279Z,96093.72
2023-03-12T06:51:21.251Z,96099.41
2023-03-12T06:53:49.286Z,96088.19
2023-03-12T06:56:17.640Z,96091.56
2023-03-12T06:58:46.094Z,96087.53
2023-03-12T07:01:15.434Z,96091.19
2023-03-12T07:03:43.380Z,96089.84
2023-03-12T07:06:15.396Z,96078.38
2023-03-12T07:08:43.597Z,96091.28
2023-03-12T07:11:11.641Z,96088.06
2023-03-12T07:13:39.669Z,96090.19
2023-03-12T07:16:08.869Z,96088.34
2023-03-12T07:18:38.306Z,96086.72
2023-03-12T07:21:07.000Z,96086.41
2023-03-12T07:23:35.007Z,96081.41
2023-03-12T07:26:05.239Z,96082.38
2023-03-12T07:28:33.168Z,96084.34
2023-03-12T07:31:02.230Z,96082.00
2023-03-12T07:33:30.339Z,96080.31
2023-03-12T07:36:00.302Z,96071.38
2023-03-12T07:38:28.598Z,96075.09
2023-03-12T07:40:58.095Z,96081.44
2023-03-12T07:43:26.341Z,96075.19
2023-03-12T07:45:54.431Z,96085.31
2023-03-12T07:48:22.449Z,96086.06
2023-03-12T07:50:50.938Z,96085.66
2023-03-12T07:53:20.340Z,96082.47
2023-03-12T07:55:48.816Z,96085.09
2023-03-12T07:58:17.423Z,96078.06
2023-03-12T08:00:45.672Z,96093.25
2023-03-12T08:03:13.837Z,96089.72
2023-03-12T08:05:42.009Z,96090.94
2023-03-12T08:08:10.126Z,96089.19
2023-03-12T08:10:39.501Z,96095.69
2023-03-12T08:13:07.587Z,96096.59
2023-03-12T08:15:35.548Z,96095.25
2023-03-12T08:18:03.495Z,96095.03
2023-03-12T08:20:31.639Z,96101.81
2023-03-12T08:22:59.600Z,96104.69
2023-03-12T08:25:27.755Z,96101.03
2023-03-12T08:27:57.064Z,96089.75
2023-03-12T08:30:25.052Z,96090.69
2023-03-12T08:32:53.055Z,96098.00
2023-03-12T08:35:20.993Z,96102.59
2023-03-12T08:37:48.964Z,96102.63
2023-03-12T08:40:17.229Z,96111.13
2023-03-12T08:42:45.976Z,96111.69
2023-03-12T08:45:15.856Z,96112.78
2023-03-12T08:47:44.691Z,96110.00
2023-03-12T08:50:13.974Z,96109.50
2023-03-12T08:52:42.031Z,96107.19
2023-03-12T08:55:10.816Z,96114.09
2023-03-12T08:57:38.836Z,96113.34
2023-03-12T09:00:14.864Z,96119.03
2023-03-12T09:02:46.411Z,96121.28
2023-03-12T09:05:15.188Z,96121.56
2023-03-12T09:07:43.330Z,96124.84
2023-03-12T09:10:12.129Z,96126.44
2023-03-12T09:12:40.158Z,96124.97
2023-03-12T09:15:09.570Z,96121.84
2023-03-12T09:17:37.556Z,96119.38
2023-03-12T09:20:09.493Z,96121.78
2023-03-12T09:22:37.948Z,96125.88
2023-03-12T09:25:06.591Z,96112.34
2023-03-12T09:27:37.646Z,96124.28
2023-03-12T09:30:07.733Z,96124.38
2023-03-12T09:32:35.795Z,96114.06
2023-03-12T09:35:03.909Z,96132.25
2023-03-12T09:37:33.420Z,96113.53
2023-03-12T09:40:01.498Z,96114.00
2023-03-12T09:42:33.101Z,96123.53
2023-03-12T09:45:04.791Z,96132.34
2023-03-12T09:47:35.447Z,96118.34
2023-03-12T09:50:08.005Z,96124.97
2023-03-12T09:52:41.307Z,96121.47
2023-03-12T09:55:14.995Z,96129.44
2023-03-12T09:57:43.315Z,96120.91
2023-03-12T10:00:14.154Z,96119.38
2023-03-12T10:03:05.613Z,96113.34
2023-03-12T10:05:38.021Z,96115.88
2023-03-12T10:08:24.499Z,96120.88
2023-03-12T10:10:57.555Z,96113.00
2023-03-12T10:13:41.189Z,96109.94
2023-03-12T10:16:16.931Z,96119.25
2023-03-12T10:19:08.825Z,96108.44
2023-03-12T10:21:40.960Z,96102.44
2023-03-12T10:24:25.130Z,96109.03
2023-03-12T10:26:56.485Z,96111.47
2023-03-12T10:29:28.298Z,96100.91
2023-03-12T10:31:59.336Z,96095.84
2023-03-12T10:34:32.302Z,96106.91
2023-03-12T10:37:02.456Z,96106.63
2023-03-12T10:39:32.246Z,96102.34
2023-03-12T10:42:01.486Z,96092.84
2023-03-12T10:44:30.246Z,96098.59
2023-03-12T10:47:02.791Z,96093.44
2023-03-12T10:49:33.484Z,96096.31
2023-03-12T10:52:05.116Z,96097.91
2023-03-12T10:54:37.039Z,96081.00
2023-03-12T10:57:05.631Z,96084.13
2023-03-12T10:59:35.747Z,96086.50
2023-03-12T11:02:05.095Z,96077.00
2023-03-12T11:04:33.607Z,96081.50
2023-03-12T11:07:20.086Z,96083.91
2023-03-12T11:10:08.868Z,96078.88
2023-03-12T11:12:39.820Z,96080.88
2023-03-12T11:15:20.621Z,96077.00
2023-03-12T11:17:48.999Z,96075.75
2023-03-12T11:20:27.078Z,96072.91
2023-03-12T11:22:55.022Z,96076.13
2023-03-12T11:25:25.907Z,96076.91
2023-03-12T11:27:55.992Z,96068.88
2023-03-12T11:30:28.212Z,96070.13
2023-03-12T11:32:58.153Z,96069.44
2023-03-12T11:35:35.081Z,96059.91
2023-03-12T11:38:08.940Z,96067.53
2023-03-12T11:40:54.066Z,96051.28
2023-03-12T11:43:43.719Z,96050.72
2023-03-12T11:46:36.838Z,96051.72
2023-03-12T11:49:14.930Z,96052.94
2023-03-12T11:51:48.775Z,96053.53
2023-03-12T11:54:39.274Z,96048.97
2023-03-12T11:57:14.891Z,96054.25
2023-03-12T11:59:55.661Z,96047.06
2023-03-12T12:02:37.441Z,96057.53
2023-03-12T12:05:32.705Z,96034.75
2023-03-12T12:08:10.701Z,96047.00
2023-03-12T12:10:45.388Z,96037.66
2023-03-12T12:13:19.681Z,96040.50
2023-03-12T12:15:54.288Z,96046.25
2023-03-12T12:18:44.723Z,96058.69
2023-03-12T12:21:25.801Z,96052.47
2023-03-12T12:23:58.446Z,96047.47
2023-03-12T12:26:31.758Z,96049.91
2023-03-12T12:29:14.732Z,96044.31
2023-03-12T12:31:47.447Z,96050.56
2023-03-12T12:34:33.345Z,96048.97
2023-03-12T12:37:14.340Z,96044.13
2023-03-12T12:39:46.896Z,96034.22
2023-03-12T12:42:19.455Z,96044.94
2023-03-12T12:44:50.554Z,96045.94
2023-03-12T12:47:20.980Z,96044.72
2023-03-12T12:49:50.813Z,96046.09
2023-03-12T12:52:21.916Z,96038.19
2023-03-12T12:54:56.765Z,96053.91
2023-03-12T12:57:29.171Z,96048.09
2023-03-12T13:00:11.029Z,96049.97
2023-03-12T13:02:40.952Z,96050.06
2023-03-12T13:05:20.328Z,96057.03
2023-03-12T13:07:48.422Z,96046.81
2023-03-12T13:10:53.060Z,96054.81
2023-03-12T13:13:27.388Z,96055.31
2023-03-12T13:16:22.480Z,96054.50
2023-03-12T13:19:01.124Z,96043.94
2023-03-12T13:21:35.137Z,96050.94
2023-03-12T13:24:13.797Z,96057.31
2023-03-12T13:26:51.512Z,96050.38
2023-03-12T13:29:37.155Z,96050.69
2023-03-12T13:32:09.316Z,96045.59
2023-03-12T13:34:48.142Z,96052.31
2023-03-12T13:37:22.733Z,96053.47
2023-03-12T13:39:52.154Z,96058.50
2023-03-12T13:42:39.053Z,96068.41
2023-03-12T13:45:24.422Z,96060.38
2023-03-12T13:47:58.011Z,96073.53
2023-03-12T13:50:26.647Z,96066.47
2023-03-12T13:53:03.443Z,96069.38
2023-03-12T13:55:32.704Z,96072.81
2023-03-12T13:58:07.827Z,96077.72
2023-03-12T14:00:39.906Z,96082.38
2023-03-12T14:03:13.797Z,96074.31
2023-03-12T14:05:49.455Z,96080.00
2023-03-12T14:08:40.437Z,96082.28
2023-03-12T14:11:20.969Z,96083.34
2023-03-12T14:14:15.645Z,96076.13
2023-03-12T14:16:45.935Z,96078.66
2023-03-12T14:19:16.377Z,96072.38
2023-03-12T14:21:46.017Z,96063.88
2023-03-12T14:24:23.105Z,96062.66
2023-03-12T14:26:51.945Z,96059.13
2023-03-12T14:29:22.467Z,96062.66
2023-03-12T14:31:51.086Z,96058.72
2023-03-12T14:34:22.167Z,96055.38
2023-03-12T14:36:54.281Z,96051.75
2023-03-12T14:39:28.375Z,96054.72
2023-03-12T14:41:59.804Z,96058.63
2023-03-12T14:44:29.314Z,96053.03
2023-03-12T14:46:58.774Z,96043.72
2023-03-12T14:49:28.851Z,96059.44
2023-03-12T14:51:57.015Z,96048.28
2023-03-12T14:54:26.689Z,96042.56
2023-03-12T14:56:54.753Z,96043.53
2023-03-12T14:59:25.890Z,96033.47
2023-03-12T15:01:53.971Z,96045.31
2023-03-12T15:04:23.989Z,96036.69
2023-03-12T15:06:55.396Z,96044.97
2023-03-12T15:09:26.120Z,96030.84
2023-03-12T15:11:55.418Z,96036.59
2023-03-12T15:14:24.244Z,96042.19
2023-03-12T15:16:52.343Z,96038.06
2023-03-12T15:19:26.351Z,96036.81
2023-03-12T15:21:55.844Z,96020.50
2023-03-12T15:24:23.968Z,96030.97
2023-03-12T15:26:52.025Z,96028.47
2023-03-12T15:29:26.810Z,96022.97
2023-03-12T15:31:56.448Z,96026.56
2023-03-12T15:34:32.040Z,96018.53
2023-03-12T15:37:03.259Z,96019.25
2023-03-12T15:39:32.994Z,96013.56
2023-03-12T15:42:09.423Z,96015.69
2023-03-12T15:44:45.300Z,96012.94
2023-03-12T15:47:15.282Z,96024.06
2023-03-12T15:49:43.604Z,96005.03
2023-03-12T15:55:09.161Z,96046.69
2023-03-12T15:57:46.733Z,96034.00
2023-03-12T16:00:22.411Z,96027.06
2023-03-12T16:02:53.623Z,96014.91
2023-03-12T16:05:23.232Z,96027.13
2023-03-12T16:07:51.329Z,96029.97
2023-03-12T16:10:22.698Z,96016.34
2023-03-12T16:12:51.422Z,96022.91
2023-03-12T16:15:23.850Z,96006.66
2023-03-12T16:17:51.788Z,96005.94
2023-03-12T16:20:20.398Z,96010.69
2023-03-12T16:22:48.384Z,96008.59
2023-03-12T16:25:16.497Z,96018.66
2023-03-12T16:27:49.384Z,96014.09
2023-03-12T16:30:19.812Z,96017.19
2023-03-12T16:32:47.851Z,96028.34
2023-03-12T16:35:17.964Z,96019.47
2023-03-12T16:37:46.033Z,96020.25
2023-03-12T16:40:23.993Z,96022.00
2023-03-12T16:43:02.762Z,96028.72
2023-03-12T16:45:32.052Z,96026.06
2023-03-12T16:48:01.739Z,96036.56
2023-03-12T16:50:30.285Z,96026.28
2023-03-12T16:52:58.676Z,96038.03
2023-03-12T16:55:28.942Z,96037.50
2023-03-12T16:57:59.227Z,96033.69
2023-03-12T17:00:30.697Z,96050.09
2023-03-12T17:02:59.151Z,96038.13
2023-03-12T17:05:27.918Z,96033.94
2023-03-12T17:07:56.061Z,96035.59
2023-03-12T17:10:24.770Z,96037.34
2023-03-12T17:12:53.582Z,96023.22
2023-03-12T17:15:23.260Z,96039.53
2023-03-12T17:17:52.949Z,96038.41
2023-03-12T17:20:22.411Z,96043.78
2023-03-12T17:22:50.432Z,96038.84
2023-03-12T17:25:22.774Z,96045.88
2023-03-12T17:27:50.834Z,96041.91
2023-03-12T17:30:19.093Z,96047.28
2023-03-12T17:32:47.064Z,96039.81
2023-03-12T17:35:16.450Z,96043.91
2023-03-12T17:37:44.612Z,96042.41
2023-03-12T17:40:13.729Z,96052.53
2023-03-12T17:42:41.714Z,96044.06
2023-03-12T17:45:10.571Z,96044.91
2023-03-12T17:47:39.024Z,96048.97
2023-03-12T17:50:08.365Z,96046.69
2023-03-12T17:52:37.771Z,96046.53
2023-03-12T17:55:07.096Z,96045.88
2023-03-12T17:57:34.996Z,96042.22
2023-03-12T18:00:04.751Z,96039.59
2023-03-12T18:02:32.679Z,96042.13
2023-03-12T18:05:00.709Z,96036.41
2023-03-12T18:07:28.678Z,96036.25
2023-03-12T18:09:57.965Z,96038.03
2023-03-12T18:12:26.228Z,96035.59
2023-03-12T18:14:54.163Z,96033.66
2023-03-12T18:17:22.068Z,96040.84
2023-03-12T18:19:49.991Z,96034.16
2023-03-12T18:22:19.709Z,96034.16
2023-03-12T18:24:47.840Z,96038.63
2023-03-12T18:27:17.169Z,96039.38
2023-03-12T18:29:45.130Z,96051.88
2023-03-12T18:32:13.038Z,96055.69
2023-03-12T18:34:42.448Z,96061.53
2023-03-12T18:37:10.424Z,96061.63
2023-03-12T18:39:38.409Z,96064.31
2023-03-12T18:42:06.564Z,96072.06
2023-03-12T18:44:35.966Z,96085.78
2023-03-12T18:47:03.906Z,96096.34
2023-03-12T18:49:31.822Z,96094.31
2023-03-12T18:51:59.731Z,96100.88
2023-03-12T18:54:27.693Z,96093.13
2023-03-12T18:56:55.675Z,96081.84
2023-03-12T18:59:23.605Z,96080.81
2023-03-12T19:01:53.025Z,96083.50
2023-03-12T19:04:21.761Z,96085.22
2023-03-12T19:06:51.975Z,96089.63
2023-03-12T19:09:20.241Z,96094.38
2023-03-12T19:11:48.414Z,96082.91
2023-03-12T19:14:16.630Z,96089.75
2023-03-12T19:16:44.704Z,96088.13
2023-03-12T19:19:14.118Z,96088.56
2023-03-12T19:21:42.239Z,96085.94
2023-03-12T19:24:10.168Z,96078.19
2023-03-12T19:26:38.151Z,96077.38
2023-03-12T19:29:06.087Z,96088.84
2023-03-12T19:31:35.137Z,96088.69
2023-03-12T19:34:03.105Z,96085.34
2023-03-12T19:36:32.421Z,96096.34
2023-03-12T19:39:02.412Z,96090.31
2023-03-12T19:41:32.308Z,96092.94
2023-03-12T19:44:00.224Z,96106.44
2023-03-12T19:46:28.144Z,96103.59
2023-03-12T19:48:56.060Z,96093.13
2023-03-12T19:51:23.988Z,96099.09
2023-03-12T19:53:53.487Z,96097.22
2023-03-12T19:56:21.598Z,96090.34
2023-03-12T19:58:49.787Z,96084.88
2023-03-12T20:01:18.305Z,96090.78
2023-03-12T20:03:46.348Z,96079.75
2023-03-12T20:06:14.341Z,96076.28
2023-03-12T20:08:42.314Z,96087.44
2023-03-12T20:11:11.915Z,96071.22
2023-03-12T20:13:39.999Z,96074.38
2023-03-12T20:16:08.986Z,96077.47
2023-03-12T20:18:37.128Z,96067.06
2023-03-12T20:21:05.528Z,96066.03
2023-03-12T20:23:33.536Z,96072.56
2023-03-12T20:26:01.490Z,96074.38
2023-03-12T20:28:30.912Z,96068.41
2023-03-12T20:30:58.876Z,96073.84
2023-03-12T20:33:26.838Z,96077.06
2023-03-12T20:35:56.058Z,96067.00
2023-03-12T20:38:24.103Z,96071.22
2023-03-12T20:40:51.997Z,96078.72
2023-03-12T20:43:20.440Z,96083.88
2023-03-12T20:45:50.086Z,96081.41
2023-03-12T20:48:18.076Z,96078.16
2023-03-12T20:50:46.144Z,96069.31
2023-03-12T20:53:14.167Z,96075.59
2023-03-12T20:55:42.261Z,96072.41
2023-03-12T20:58:10.234Z,96077.84
2023-03-12T21:00:38.250Z,96073.31
2023-03-12T21:03:07.552Z,96077.47
2023-03-12T21:05:35.464Z,96081.59
2023-03-12T21:08:03.357Z,96082.44
2023-03-12T21:10:31.838Z,96083.81
2023-03-12T21:12:59.774Z,96072.88
2023-03-12T21:15:28.261Z,96069.94
2023-03-12T21:17:57.129Z,96076.47
2023-03-12T21:20:26.451Z,96071.28
2023-03-12T21:22:54.393Z,96063.97
2023-03-12T21:25:22.324Z,96059.16
2023-03-12T21:27:51.816Z,96074.16
2023-03-12T21:30:20.408Z,96072.50
2023-03-12T21:32:48.362Z,96085.78
2023-03-12T21:35:16.287Z,96081.69
2023-03-12T21:37:45.591Z,96075.47
2023-03-12T21:40:14.534Z,96089.50
2023-03-12T21:42:42.447Z,96084.34
2023-03-12T21:45:11.930Z,96089.44
2023-03-12T21:47:40.493Z,96091.16
2023-03-12T21:50:09.308Z,96089.69
2023-03-12T21:52:43.069Z,96080.97
2023-03-12T21:55:12.956Z,96090.38
2023-03-12T21:57:40.870Z,96095.94
2023-03-12T22:00:12.827Z,96099.94
2023-03-12T22:02:41.409Z,96097.28
2023-03-12T22:05:10.090Z,96093.00
2023-03-12T22:07:38.232Z,96098.00
2023-03-12T22:10:07.165Z,96100.75
2023-03-12T22:12:36.488Z,96103.50
2023-03-12T22:15:04.538Z,96100.19
2023-03-12T22:17:32.767Z,96106.25
2023-03-12T22:20:00.902Z,96107.38
2023-03-12T22:22:28.958Z,96109.19
2023-03-12T22:24:56.926Z,96108.94
2023-03-12T22:27:24.918Z,96120.06
2023-03-12T22:29:56.636Z,96114.91
2023-03-12T22:32:24.762Z,96107.91
2023-03-12T22:34:52.785Z,96111.94
2023-03-12T22:37:20.747Z,96115.00
2023-03-12T22:39:48.659Z,96116.63
2023-03-12T22:42:16.607Z,96106.94
2023-03-12T22:44:44.551Z,96109.34
2023-03-12T22:47:13.897Z,96105.56
2023-03-12T22:49:41.849Z,96107.59
2023-03-12T22:52:09.766Z,96107.81
2023-03-12T22:54:37.737Z,96113.03
2023-03-12T22:57:05.646Z,96114.00
2023-03-12T22:59:33.605Z,96117.53
2023-03-12T23:02:01.599Z,96114.31
2023-03-12T23:04:30.971Z,96099.63
2023-03-12T23:07:12.842Z,96092.22
2023-03-12T23:09:41.826Z,96100.22
2023-03-12T23:12:09.989Z,96102.97
2023-03-12T23:14:37.947Z,96101.16
2023-03-12T23:17:05.982Z,96114.34
2023-03-12T23:19:36.354Z,96114.91
2023-03-12T23:22:04.377Z,96127.28
2023-03-12T23:24:32.861Z,96119.75
2023-03-12T23:27:00.967Z,96111.09
2023-03-12T23:29:30.490Z,96121.63
2023-03-12T23:31:58.544Z,96115.59
2023-03-12T23:34:26.625Z,96117.63
2023-03-12T23:36:56.154Z,96125.22
2023-03-12T23:39:24.100Z,96126.38
2023-03-12T23:41:52.056Z,96120.41
2023-03-12T23:44:19.972Z,96105.13
2023-03-12T23:46:48.083Z,96114.72
2023-03-12T23:49:16.089Z,96107.03
2023-03-12T23:51:43.989Z,96112.13
2023-03-12T23:54:13.380Z,96114.13
2023-03-12T23:56:41.829Z,96110.25
2023-03-12T23:59:10.818Z,96103.34
